TFM - Tactical Decision Aid
ID: Runway Winds: CIG/VIS Threshold:

KINK - Wink/Winkler Cnty, TX, US

Updated at: 1320 UTC 26 Feb 2021
Latest TAF at: 1120 UTC 26 Feb 2021

TAF Board

Time1253Z 26/14Z 26/15Z 26/16Z 26/17Z 26/18Z 26/19Z 26/20Z 26/21Z 26/22Z 26/23Z 27/00Z 27/01Z 27/02Z>>
Type OBS PRVL PRVL PRVL PRVL PRVL PRVL PRVL PRVL PRVL PRVL PRVL PRVL PRVL
VIS -- >6 >6 >6 >6 >6 >6 >6 >6 >6 >6 >6 >6 >6
CIG -- -- -- -- -- -- -- -- -- -- -- -- -- --
Cover CLR SCT SCT SCT SCT SCT SCT SCT SCT SCT SCT SCT SCT SCT
FltCat VFR VFR VFR VFR VFR VFR VFR VFR VFR VFR VFR VFR VFR VFR
WX -- -- -- -- -- -- -- -- -- -- -- -- -- --
WDir VRB 300 300 300 300 300 300 300 300 300 300 300 300 300
WSpd 0 6 6 6 6 6 6 6 6 6 6 6 6 6
WGst -- -- -- -- -- -- -- -- -- -- -- -- -- --

TDA Impact Legend

  None Marginal Slight Moderate High
Visibility (sm) >5 3≤X≤5 2≤X<3 1≤X<2 <1
Ceiling (100 ft) >30 10≤X≤30 8≤X<10 4≤X<8 <4
Wind Speed (kt) <15 15≤X<25 25≤X<30 ≥30
Wind Gust (kt) <15 15≤X<25 25≤X<35 ≥35
Weather No Wx Reported VCTS -TS,-FZRA TS,FZRA +TS,+FZRA
TAF
KINK 261120Z 2612/2712 30006KT P6SM SCT250

METAR
KINK 261253Z AUTO 00000KT CLR M02/M05 A2997 RMK AO2 SLP145 T10221050
KINK 261153Z AUTO 27003KT CLR M01/M04 A3000 RMK AO2 SLP152 T10111039 10017 21022 56011
KINK 261053Z AUTO 00000KT CLR M02/M05 A3000 RMK AO2 SLP153 T10221050
KINK 260953Z AUTO 00000KT CLR M02/M04 A3001 RMK AO2 SLP157 T10171044

Radar Display
Forecast Discussion